Time;durP1;ratioP1;P1;durP2;ratioP2;P2;SDS_P1;SDS_P2;PMS_P1;PMS_P2;Temp;Humidity;BMP_temperature;BMP_pressure;BME280_temperature;BME280_humidity;BME280_pressure;Samples;Min_cycle;Max_cycle;Signal;HPM_P1;HPM_P2
2021/05/28 00:00:20;;;;;;;8.55;2.90;;;17.00;74.30;;;;;;5091640;28;20032;-67
2021/05/28 00:02:46;;;;;;;9.73;3.00;;;17.00;74.30;;;;;;5091764;28;20039;-67
2021/05/28 00:05:12;;;;;;;7.97;2.65;;;17.00;74.20;;;;;;5073120;28;20036;-69
2021/05/28 00:07:38;;;;;;;9.60;2.85;;;17.00;74.30;;;;;;5092070;28;20042;-67
2021/05/28 00:10:04;;;;;;;8.75;2.50;;;17.00;74.30;;;;;;5073477;28;20028;-69
2021/05/28 00:12:30;;;;;;;9.90;2.85;;;17.00;74.30;;;;;;5073986;28;20519;-69
2021/05/28 00:14:55;;;;;;;9.05;2.50;;;17.00;74.20;;;;;;5091470;28;20028;-68
2021/05/28 00:17:21;;;;;;;7.85;2.45;;;17.00;74.40;;;;;;5091664;28;20516;-68
2021/05/28 00:19:47;;;;;;;8.38;2.42;;;17.00;74.30;;;;;;5091200;28;20031;-68
2021/05/28 00:22:12;;;;;;;8.00;2.72;;;17.00;74.30;;;;;;5090794;28;20028;-68
2021/05/28 00:24:38;;;;;;;7.50;2.45;;;16.90;74.20;;;;;;5073469;28;20016;-68
2021/05/28 00:27:03;;;;;;;8.15;2.60;;;16.90;74.20;;;;;;5091920;28;20024;-68
2021/05/28 00:29:29;;;;;;;7.70;2.45;;;16.90;74.20;;;;;;5091336;28;20085;-68
2021/05/28 00:31:54;;;;;;;9.10;2.15;;;16.90;74.20;;;;;;5090928;28;20024;-68
2021/05/28 00:34:20;;;;;;;6.72;2.33;;;16.90;74.20;;;;;;5072870;28;20397;-67
2021/05/28 00:36:45;;;;;;;6.20;2.33;;;16.90;74.70;;;;;;5073573;28;20020;-68
2021/05/28 00:39:11;;;;;;;7.25;2.30;;;16.90;74.10;;;;;;5091033;28;20043;-67
2021/05/28 00:41:37;;;;;;;7.38;2.13;;;16.90;74.20;;;;;;5073407;28;20028;-68
2021/05/28 00:44:03;;;;;;;6.72;2.30;;;16.90;74.20;;;;;;5090864;28;20055;-67
2021/05/28 00:46:29;;;;;;;7.25;2.30;;;16.90;74.20;;;;;;5091406;28;20035;-68
2021/05/28 00:48:55;;;;;;;6.30;1.85;;;16.90;74.20;;;;;;5091505;28;20111;-68
2021/05/28 00:51:24;;;;;;;5.85;2.10;;;16.90;74.20;;;;;;5073125;28;20032;-67
2021/05/28 00:53:50;;;;;;;5.93;2.25;;;16.90;74.10;;;;;;5073288;28;20027;-67
2021/05/28 00:56:16;;;;;;;8.27;2.35;;;16.90;74.20;;;;;;5091419;28;20024;-69
2021/05/28 00:58:42;;;;;;;5.88;2.45;;;16.80;74.10;;;;;;5072725;28;20115;-69
2021/05/28 01:01:08;;;;;;;6.80;2.45;;;16.90;74.20;;;;;;5054341;28;20033;-67
2021/05/28 01:03:35;;;;;;;6.25;2.35;;;16.80;74.70;;;;;;5068241;28;20055;-67
2021/05/28 01:06:00;;;;;;;7.13;2.60;;;16.80;74.20;;;;;;5073203;28;20115;-68
2021/05/28 01:08:26;;;;;;;6.20;1.92;;;16.80;74.20;;;;;;5091307;28;20127;-67
2021/05/28 01:10:52;;;;;;;5.93;1.98;;;16.80;74.30;;;;;;5072764;28;20446;-67
2021/05/28 01:13:18;;;;;;;6.60;2.20;;;16.80;74.30;;;;;;5091031;28;20024;-68
2021/05/28 01:15:43;;;;;;;6.65;2.20;;;16.80;74.30;;;;;;5090986;28;20102;-69
2021/05/28 01:18:09;;;;;;;7.18;2.10;;;16.80;74.30;;;;;;5073325;28;20031;-67
2021/05/28 01:20:36;;;;;;;6.88;2.05;;;16.80;74.20;;;;;;5090629;28;20020;-68
2021/05/28 01:23:04;;;;;;;4.90;1.90;;;16.80;74.30;;;;;;5090976;28;20058;-67
2021/05/28 01:25:30;;;;;;;7.13;2.25;;;16.80;74.30;;;;;;5072535;28;20024;-67
2021/05/28 01:27:56;;;;;;;6.25;2.13;;;16.80;74.40;;;;;;5081395;28;20025;-67
2021/05/28 01:30:23;;;;;;;7.75;1.90;;;16.70;74.30;;;;;;5072012;28;20151;-67
2021/05/28 01:32:50;;;;;;;6.35;2.08;;;16.70;74.40;;;;;;5074575;28;20020;-68
2021/05/28 01:35:15;;;;;;;7.45;2.30;;;16.70;74.40;;;;;;5076479;28;20043;-67
2021/05/28 01:37:42;;;;;;;5.00;1.65;;;16.70;74.40;;;;;;5094404;28;20653;-68
2021/05/28 01:40:09;;;;;;;5.78;1.98;;;16.70;74.40;;;;;;5094376;28;20028;-67
2021/05/28 01:42:35;;;;;;;6.82;2.05;;;16.70;74.50;;;;;;5076415;28;20058;-67
2021/05/28 01:45:02;;;;;;;5.22;1.90;;;16.70;74.50;;;;;;5094160;28;20438;-67
2021/05/28 01:47:28;;;;;;;6.07;1.70;;;16.70;74.60;;;;;;5094674;28;20022;-68
2021/05/28 01:49:54;;;;;;;6.15;1.77;;;16.70;74.60;;;;;;5094486;28;20452;-68
2021/05/28 01:52:22;;;;;;;5.30;1.70;;;16.70;74.50;;;;;;5093866;28;20036;-68
2021/05/28 01:54:48;;;;;;;6.32;2.00;;;16.70;74.60;;;;;;5094416;28;20058;-68
2021/05/28 01:57:13;;;;;;;7.63;2.35;;;16.70;74.60;;;;;;5094261;28;20020;-68
2021/05/28 01:59:39;;;;;;;4.85;1.75;;;16.70;74.60;;;;;;5075829;28;20477;-68
2021/05/28 02:02:06;;;;;;;5.47;1.77;;;16.60;74.60;;;;;;5094178;28;20111;-68
2021/05/28 02:04:31;;;;;;;6.53;1.92;;;16.60;75.10;;;;;;5094112;28;20113;-67
2021/05/28 02:06:57;;;;;;;5.43;1.63;;;16.60;74.70;;;;;;5094312;28;20032;-68
2021/05/28 02:09:23;;;;;;;5.65;1.58;;;16.60;74.70;;;;;;5093311;28;20032;-68
2021/05/28 02:11:48;;;;;;;5.90;1.80;;;16.60;74.70;;;;;;5093699;28;20043;-68
2021/05/28 02:14:14;;;;;;;4.90;1.80;;;16.60;74.70;;;;;;5071033;28;20084;-67
2021/05/28 02:16:40;;;;;;;5.85;1.90;;;16.50;74.70;;;;;;5082309;28;20051;-67
2021/05/28 02:19:08;;;;;;;5.97;1.70;;;16.60;74.90;;;;;;5085572;28;20070;-67
2021/05/28 02:21:34;;;;;;;6.07;1.80;;;16.60;74.80;;;;;;5083735;28;20043;-67
2021/05/28 02:24:00;;;;;;;4.95;1.70;;;16.50;74.80;;;;;;5093545;28;20112;-68
2021/05/28 02:26:26;;;;;;;4.85;1.63;;;16.50;74.90;;;;;;5091920;28;20059;-68
2021/05/28 02:28:51;;;;;;;5.20;1.67;;;16.50;74.80;;;;;;5093550;28;20129;-68
2021/05/28 02:31:18;;;;;;;4.93;1.80;;;16.50;74.90;;;;;;5085139;28;20035;-68
2021/05/28 02:33:43;;;;;;;4.13;1.67;;;16.50;74.90;;;;;;5055409;28;20111;-70
2021/05/28 02:36:09;;;;;;;5.00;1.80;;;16.50;74.90;;;;;;5073568;28;20052;-67
2021/05/28 02:38:35;;;;;;;5.78;1.80;;;16.50;75.50;;;;;;5055543;28;20504;-68
2021/05/28 02:41:01;;;;;;;5.03;1.75;;;16.50;75.00;;;;;;5064823;28;20032;-67
2021/05/28 02:43:27;;;;;;;4.45;1.50;;;16.40;74.90;;;;;;5092631;28;20034;-67
2021/05/28 02:45:53;;;;;;;5.80;1.75;;;16.40;75.00;;;;;;5075164;28;20045;-68
2021/05/28 02:48:19;;;;;;;3.95;1.70;;;16.40;75.10;;;;;;5093512;28;20473;-68
2021/05/28 02:50:46;;;;;;;4.15;1.50;;;16.40;75.00;;;;;;5056389;28;20115;-69
2021/05/28 02:53:11;;;;;;;4.35;1.50;;;16.40;75.10;;;;;;5073264;28;20029;-68
2021/05/28 02:55:38;;;;;;;4.68;1.65;;;16.40;75.20;;;;;;5076831;28;20130;-69
2021/05/28 02:58:04;;;;;;;4.03;1.73;;;16.40;75.20;;;;;;5089188;28;20386;-68
2021/05/28 03:00:30;;;;;;;4.95;1.55;;;16.30;75.20;;;;;;5072948;28;20040;-68
2021/05/28 03:02:56;;;;;;;4.88;1.70;;;16.30;75.20;;;;;;5055080;28;20024;-68
2021/05/28 03:05:21;;;;;;;4.78;1.65;;;16.30;75.30;;;;;;5071536;28;20034;-68
2021/05/28 03:07:47;;;;;;;6.40;1.80;;;16.30;75.40;;;;;;5079245;28;20039;-67
2021/05/28 03:10:12;;;;;;;3.88;1.48;;;16.30;75.30;;;;;;5079212;28;20390;-68
2021/05/28 03:12:38;;;;;;;4.85;1.60;;;16.30;75.40;;;;;;5093199;28;20031;-68
2021/05/28 03:15:05;;;;;;;5.07;1.63;;;16.30;75.50;;;;;;5074561;28;20027;-69
2021/05/28 03:17:31;;;;;;;4.85;1.60;;;16.30;75.60;;;;;;5058545;28;20413;-68
2021/05/28 03:19:57;;;;;;;5.18;1.63;;;16.20;75.50;;;;;;5072499;28;20078;-68
2021/05/28 03:22:32;;;;;;;5.32;1.83;;;16.20;75.50;;;;;;5072537;28;20482;-68
2021/05/28 03:24:59;;;;;;;6.78;1.65;;;16.30;75.60;;;;;;5082947;28;20085;-67
2021/05/28 03:27:25;;;;;;;3.90;1.52;;;16.20;75.50;;;;;;5092693;28;20671;-70
2021/05/28 03:29:50;;;;;;;4.60;1.63;;;16.20;75.50;;;;;;5092647;28;20104;-67
2021/05/28 03:32:16;;;;;;;5.97;1.85;;;16.20;75.50;;;;;;5075319;28;20036;-68
2021/05/28 03:34:41;;;;;;;5.68;1.83;;;16.20;75.50;;;;;;5072077;28;20044;-69
2021/05/28 03:37:07;;;;;;;3.60;1.60;;;16.20;75.50;;;;;;5053690;28;20022;-69
2021/05/28 03:39:33;;;;;;;4.78;1.67;;;16.20;75.40;;;;;;5073034;28;20059;-69
2021/05/28 03:41:58;;;;;;;7.10;1.75;;;16.20;75.40;;;;;;5078589;28;20107;-69
2021/05/28 03:44:24;;;;;;;5.43;1.50;;;16.20;75.50;;;;;;5071728;28;20027;-68
2021/05/28 03:46:49;;;;;;;4.88;1.50;;;16.20;75.50;;;;;;5084715;28;20074;-68
2021/05/28 03:49:15;;;;;;;4.88;1.58;;;16.10;75.40;;;;;;5054130;28;20056;-67
2021/05/28 03:51:41;;;;;;;6.20;1.65;;;16.20;75.60;;;;;;5083756;28;20071;-67
2021/05/28 03:54:06;;;;;;;4.53;1.70;;;16.10;75.50;;;;;;5091202;28;20438;-68
2021/05/28 03:56:32;;;;;;;4.80;1.60;;;16.10;75.40;;;;;;5092027;28;20024;-69
2021/05/28 03:59:00;;;;;;;6.68;1.73;;;16.10;75.50;;;;;;5091316;28;20433;-67
2021/05/28 04:01:26;;;;;;;5.85;1.77;;;16.10;75.50;;;;;;5064665;28;20031;-67
2021/05/28 04:03:51;;;;;;;3.55;1.42;;;16.10;75.40;;;;;;5070008;28;20028;-67
2021/05/28 04:06:17;;;;;;;5.10;1.80;;;16.10;75.40;;;;;;5089136;28;20029;-68
2021/05/28 04:08:42;;;;;;;4.75;1.60;;;16.10;75.30;;;;;;5070936;28;20089;-67
2021/05/28 04:11:08;;;;;;;5.82;1.83;;;16.10;75.40;;;;;;5070257;28;20393;-68
2021/05/28 04:13:33;;;;;;;5.07;1.63;;;16.10;75.40;;;;;;5071331;28;20017;-68
2021/05/28 04:16:00;;;;;;;3.90;1.40;;;16.10;75.40;;;;;;5083799;28;20389;-67
2021/05/28 04:18:26;;;;;;;5.28;1.58;;;16.10;75.30;;;;;;5075433;28;20022;-67
2021/05/28 04:20:53;;;;;;;4.85;1.58;;;16.10;75.40;;;;;;5080523;28;20552;-67
2021/05/28 04:23:21;;;;;;;5.68;1.50;;;16.10;75.50;;;;;;5091329;28;20129;-67
2021/05/28 04:25:47;;;;;;;3.38;1.50;;;16.10;75.40;;;;;;5073525;28;20027;-68
2021/05/28 04:28:13;;;;;;;5.93;1.65;;;16.10;75.20;;;;;;5091830;28;20108;-67
2021/05/28 04:30:39;;;;;;;7.43;1.80;;;16.10;75.00;;;;;;5075684;28;20111;-69
2021/05/28 04:33:05;;;;;;;4.50;1.45;;;16.30;75.10;;;;;;5084473;28;20124;-67
2021/05/28 04:35:31;;;;;;;5.32;1.90;;;16.10;74.90;;;;;;5076228;28;20401;-67
2021/05/28 04:37:56;;;;;;;4.55;1.48;;;16.10;74.80;;;;;;5087251;28;20024;-68
2021/05/28 04:40:22;;;;;;;8.43;1.80;;;16.10;74.80;;;;;;5089626;28;20099;-69
2021/05/28 04:42:47;;;;;;;5.07;1.70;;;16.10;74.40;;;;;;5064999;28;20029;-67
2021/05/28 04:45:13;;;;;;;4.90;1.60;;;16.10;74.30;;;;;;5065091;28;20478;-68
2021/05/28 04:47:39;;;;;;;5.68;1.98;;;16.10;74.20;;;;;;5064761;28;20028;-67
2021/05/28 04:50:05;;;;;;;3.63;1.80;;;16.10;74.10;;;;;;5075791;28;20024;-66
2021/05/28 04:52:31;;;;;;;6.57;1.90;;;16.20;74.20;;;;;;5068833;28;20495;-68
2021/05/28 04:54:56;;;;;;;5.25;1.77;;;16.20;74.10;;;;;;5047239;28;20033;-67
2021/05/28 04:57:22;;;;;;;5.75;2.00;;;16.20;74.10;;;;;;5065120;28;21124;-68
2021/05/28 04:59:47;;;;;;;5.13;1.88;;;16.20;74.00;;;;;;5073981;28;20039;-67
2021/05/28 05:02:13;;;;;;;4.32;1.70;;;16.10;74.00;;;;;;5066763;28;20032;-67
2021/05/28 05:04:38;;;;;;;5.22;2.00;;;16.20;74.00;;;;;;5084687;28;20024;-68
2021/05/28 05:07:04;;;;;;;7.07;3.40;;;16.20;73.90;;;;;;5086085;28;20043;-68
2021/05/28 05:09:29;;;;;;;9.75;4.15;;;16.20;74.00;;;;;;5088330;28;20776;-68
2021/05/28 05:11:55;;;;;;;11.05;4.60;;;16.10;73.30;;;;;;5088529;28;20038;-67
2021/05/28 05:14:20;;;;;;;17.10;4.32;;;16.10;73.60;;;;;;5063482;28;20025;-65
2021/05/28 05:16:46;;;;;;;26.55;4.55;;;16.20;73.90;;;;;;5079407;28;20031;-69
2021/05/28 05:19:12;;;;;;;21.52;3.58;;;16.30;74.80;;;;;;5086847;28;20055;-70
2021/05/28 05:21:38;;;;;;;12.65;3.17;;;16.30;75.00;;;;;;5064170;28;20526;-67
2021/05/28 05:24:04;;;;;;;19.50;3.78;;;16.30;75.10;;;;;;5076112;28;20092;-69
2021/05/28 05:26:29;;;;;;;16.88;3.58;;;16.30;74.00;;;;;;5068926;28;20127;-70
2021/05/28 05:28:55;;;;;;;16.83;4.07;;;16.40;74.00;;;;;;5060932;28;20024;-67
2021/05/28 05:31:20;;;;;;;14.45;3.90;;;16.30;73.90;;;;;;5069488;28;20546;-68
2021/05/28 05:33:46;;;;;;;9.68;3.15;;;16.30;73.70;;;;;;5088643;28;20509;-67
2021/05/28 05:36:11;;;;;;;13.23;3.63;;;16.30;73.40;;;;;;5088647;28;20042;-67
2021/05/28 05:38:37;;;;;;;8.65;3.25;;;16.30;73.30;;;;;;5070232;28;20047;-69
2021/05/28 05:41:02;;;;;;;13.95;3.55;;;16.30;73.20;;;;;;5088645;28;20032;-71
2021/05/28 05:43:28;;;;;;;12.65;3.13;;;16.30;72.80;;;;;;5067627;28;20024;-68
2021/05/28 05:45:54;;;;;;;9.70;3.17;;;16.40;72.90;;;;;;5074718;28;20781;-69
2021/05/28 05:48:19;;;;;;;10.13;3.47;;;16.40;72.80;;;;;;5080472;28;20141;-68
2021/05/28 05:50:45;;;;;;;10.90;3.30;;;16.40;72.90;;;;;;5067868;28;20059;-70
2021/05/28 05:53:10;;;;;;;9.77;2.72;;;16.40;72.80;;;;;;5062751;28;20028;-68
2021/05/28 05:55:36;;;;;;;8.68;2.83;;;16.30;72.70;;;;;;5088340;28;20020;-69
2021/05/28 05:58:01;;;;;;;9.85;2.75;;;16.40;72.60;;;;;;5088053;28;20553;-68
2021/05/28 06:00:27;;;;;;;7.25;2.72;;;16.40;72.50;;;;;;5069807;28;20032;-69
2021/05/28 06:02:52;;;;;;;9.32;2.78;;;16.40;72.50;;;;;;5087958;28;20400;-67
2021/05/28 06:05:18;;;;;;;8.55;2.50;;;16.40;72.30;;;;;;5057292;28;20077;-68
2021/05/28 06:07:45;;;;;;;6.47;2.40;;;16.40;72.40;;;;;;5067851;28;20025;-68
2021/05/28 06:10:12;;;;;;;5.72;2.70;;;16.40;72.20;;;;;;5067930;28;20029;-69
2021/05/28 06:12:38;;;;;;;11.00;2.83;;;16.40;72.10;;;;;;5067382;28;20024;-69
2021/05/28 06:15:04;;;;;;;7.88;2.78;;;16.40;71.90;;;;;;5066764;28;20824;-67
2021/05/28 06:17:30;;;;;;;7.72;3.47;;;16.40;71.90;;;;;;5066304;28;20490;-67
2021/05/28 06:19:56;;;;;;;9.90;3.80;;;16.40;71.70;;;;;;5067451;28;20034;-72
2021/05/28 06:22:22;;;;;;;8.13;4.20;;;16.40;72.00;;;;;;5049350;28;20036;-74
2021/05/28 06:24:48;;;;;;;8.35;3.92;;;16.40;71.40;;;;;;5048796;28;20093;-68
2021/05/28 06:27:14;;;;;;;8.93;3.70;;;16.40;72.40;;;;;;5067094;28;20024;-68
2021/05/28 06:29:40;;;;;;;8.43;3.58;;;16.40;72.30;;;;;;5067498;28;20067;-68
2021/05/28 06:32:05;;;;;;;7.10;3.30;;;16.40;72.20;;;;;;5067069;28;20478;-67
2021/05/28 06:34:31;;;;;;;7.20;3.22;;;16.40;72.10;;;;;;5067012;28;20081;-69
2021/05/28 06:36:57;;;;;;;7.13;3.15;;;16.40;72.10;;;;;;5067013;28;20059;-68
2021/05/28 06:39:23;;;;;;;6.47;3.20;;;16.40;71.80;;;;;;5067316;28;20104;-68
2021/05/28 06:41:48;;;;;;;8.65;3.15;;;16.40;71.90;;;;;;5067171;28;20554;-69
2021/05/28 06:44:14;;;;;;;6.22;2.95;;;16.50;71.70;;;;;;5048690;28;20032;-67
2021/05/28 06:46:40;;;;;;;9.23;3.05;;;16.50;71.70;;;;;;5066859;28;20028;-67
2021/05/28 06:49:05;;;;;;;8.05;3.00;;;16.60;71.50;;;;;;5067442;28;20036;-66
2021/05/28 06:51:31;;;;;;;6.05;3.00;;;16.80;70.40;;;;;;5048742;28;20093;-67
2021/05/28 06:53:56;;;;;;;6.68;3.20;;;17.00;69.50;;;;;;5048348;28;20569;-67
2021/05/28 06:56:22;;;;;;;6.82;2.95;;;17.00;69.20;;;;;;5066854;28;20516;-70
2021/05/28 06:58:49;;;;;;;6.10;2.80;;;17.00;69.70;;;;;;5066333;28;20075;-70
2021/05/28 07:01:15;;;;;;;5.88;2.97;;;16.90;69.10;;;;;;5066749;28;20036;-67
2021/05/28 07:03:41;;;;;;;6.45;3.10;;;16.90;69.50;;;;;;5066577;28;20044;-68
2021/05/28 07:06:08;;;;;;;6.97;3.30;;;16.90;70.00;;;;;;5048379;28;20028;-69
2021/05/28 07:08:33;;;;;;;5.90;3.08;;;16.90;70.10;;;;;;5066510;28;20063;-69
2021/05/28 07:10:59;;;;;;;6.28;2.95;;;16.80;70.00;;;;;;5066293;28;20466;-70
2021/05/28 07:13:25;;;;;;;6.50;2.80;;;16.90;69.50;;;;;;5048002;28;20390;-67
2021/05/28 07:15:51;;;;;;;4.55;2.72;;;17.10;69.20;;;;;;5048730;28;20356;-66
2021/05/28 07:18:17;;;;;;;7.82;3.05;;;17.40;68.20;;;;;;5066664;28;20025;-67
2021/05/28 07:20:44;;;;;;;6.45;2.75;;;17.50;67.80;;;;;;5048183;28;20071;-68
2021/05/28 07:23:11;;;;;;;6.50;2.97;;;17.60;67.10;;;;;;5047542;28;20043;-67
2021/05/28 07:25:37;;;;;;;6.75;2.88;;;17.50;67.00;;;;;;5047775;28;20029;-68
2021/05/28 07:28:03;;;;;;;5.60;2.83;;;17.60;67.60;;;;;;5066430;28;20040;-69
2021/05/28 07:30:28;;;;;;;7.65;2.55;;;17.90;67.00;;;;;;5056162;28;20024;-68
2021/05/28 07:32:54;;;;;;;10.45;3.60;;;17.90;66.30;;;;;;5056743;28;20032;-67
2021/05/28 07:35:19;;;;;;;5.63;3.05;;;18.00;66.70;;;;;;5056611;28;20900;-67
2021/05/28 07:37:45;;;;;;;5.25;2.95;;;18.10;66.70;;;;;;5056639;28;20057;-69
2021/05/28 07:40:11;;;;;;;5.35;2.88;;;18.40;66.00;;;;;;5076751;28;20669;-67
2021/05/28 07:42:37;;;;;;;6.85;2.95;;;18.60;65.30;;;;;;5057205;28;20404;-68
2021/05/28 07:45:04;;;;;;;5.47;2.80;;;18.80;64.90;;;;;;5074973;28;20039;-68
2021/05/28 07:47:29;;;;;;;6.18;3.17;;;18.90;64.00;;;;;;5079162;28;20070;-67
2021/05/28 07:49:55;;;;;;;5.60;3.08;;;19.00;63.70;;;;;;5066070;28;20060;-70
2021/05/28 07:52:20;;;;;;;6.05;3.00;;;19.10;63.30;;;;;;5085331;28;20034;-67
2021/05/28 07:54:46;;;;;;;6.95;3.28;;;19.10;62.80;;;;;;5066960;28;20034;-69
2021/05/28 07:57:11;;;;;;;5.75;3.15;;;19.20;62.70;;;;;;5085479;28;20357;-67
2021/05/28 07:59:37;;;;;;;6.00;3.00;;;19.30;62.30;;;;;;5067538;28;20071;-69
2021/05/28 08:02:02;;;;;;;6.05;3.13;;;19.30;61.90;;;;;;5085728;28;20059;-67
2021/05/28 08:04:28;;;;;;;5.60;3.10;;;19.40;61.80;;;;;;5085625;28;20039;-67
2021/05/28 08:06:54;;;;;;;7.93;3.33;;;19.50;61.60;;;;;;5067321;28;20034;-68
2021/05/28 08:09:19;;;;;;;6.50;3.20;;;19.50;60.90;;;;;;5085670;28;20089;-68
2021/05/28 08:11:44;;;;;;;6.47;2.90;;;19.60;60.50;;;;;;5085545;28;20500;-70
2021/05/28 08:14:10;;;;;;;6.28;3.10;;;19.60;60.50;;;;;;5066986;28;20031;-67
2021/05/28 08:16:36;;;;;;;5.65;3.22;;;19.70;60.40;;;;;;5067293;28;20032;-68
2021/05/28 08:19:02;;;;;;;5.63;3.22;;;19.80;60.00;;;;;;5085576;28;20112;-68
2021/05/28 08:21:28;;;;;;;6.53;3.45;;;19.80;59.90;;;;;;5085615;28;20059;-68
2021/05/28 08:23:54;;;;;;;6.88;3.40;;;19.90;59.80;;;;;;5085248;28;20059;-67
2021/05/28 08:26:19;;;;;;;6.47;3.55;;;19.90;59.50;;;;;;5085637;28;20508;-68
2021/05/28 08:28:45;;;;;;;5.50;2.85;;;20.00;59.50;;;;;;5085290;28;20036;-67
2021/05/28 08:31:11;;;;;;;7.00;3.17;;;20.10;58.90;;;;;;5085450;28;20366;-67
2021/05/28 08:33:38;;;;;;;6.32;3.33;;;20.00;58.90;;;;;;5085098;28;20390;-68
2021/05/28 08:36:04;;;;;;;6.80;3.47;;;20.10;59.10;;;;;;5085382;28;20020;-68
2021/05/28 08:38:30;;;;;;;5.80;2.97;;;20.20;58.70;;;;;;5067191;28;20031;-68
2021/05/28 08:40:55;;;;;;;5.65;3.22;;;20.30;58.30;;;;;;5085695;28;20032;-67
2021/05/28 08:43:21;;;;;;;5.68;3.38;;;20.20;58.10;;;;;;5070102;28;20505;-67
2021/05/28 08:45:47;;;;;;;5.35;2.72;;;20.30;58.00;;;;;;5071205;28;20123;-68
2021/05/28 08:48:16;;;;;;;6.75;3.65;;;20.30;58.20;;;;;;5089265;28;20197;-67
2021/05/28 08:50:43;;;;;;;7.00;3.20;;;20.40;57.80;;;;;;5089121;28;20111;-68
2021/05/28 08:53:11;;;;;;;6.95;3.30;;;20.40;57.90;;;;;;5089393;28;20028;-69
2021/05/28 08:55:38;;;;;;;6.07;3.00;;;20.40;57.50;;;;;;5070688;28;20035;-67
2021/05/28 08:58:08;;;;;;;7.13;3.60;;;20.50;58.00;;;;;;5088822;28;20024;-67
2021/05/28 09:00:35;;;;;;;6.75;3.70;;;20.50;57.60;;;;;;5089601;28;20046;-69
2021/05/28 09:03:17;;;;;;;6.18;3.50;;;20.60;57.30;;;;;;5070898;28;20024;-69
2021/05/28 09:05:43;;;;;;;6.63;3.17;;;20.60;57.40;;;;;;5089061;28;20082;-68
2021/05/28 09:08:10;;;;;;;7.35;3.83;;;20.70;57.40;;;;;;5089351;28;20497;-68
2021/05/28 09:10:40;;;;;;;5.75;3.03;;;20.60;57.10;;;;;;5070661;28;20501;-68
2021/05/28 09:13:13;;;;;;;6.43;3.20;;;20.60;56.90;;;;;;5089118;28;20101;-68
2021/05/28 09:15:45;;;;;;;5.75;3.50;;;20.70;57.10;;;;;;5088862;28;20020;-68
2021/05/28 09:18:11;;;;;;;5.53;3.13;;;20.80;56.50;;;;;;5089056;28;20024;-68
2021/05/28 09:20:38;;;;;;;6.13;3.17;;;20.80;56.70;;;;;;5088831;28;20016;-68
2021/05/28 09:23:12;;;;;;;5.60;3.35;;;20.80;56.50;;;;;;5070393;28;20020;-68
2021/05/28 09:26:09;;;;;;;6.25;3.45;;;20.90;56.30;;;;;;5088498;28;20507;-67
2021/05/28 09:28:38;;;;;;;6.10;3.15;;;21.00;56.40;;;;;;5070318;28;20331;-67
2021/05/28 09:31:07;;;;;;;7.28;3.22;;;21.10;55.90;;;;;;5088511;28;20028;-68
2021/05/28 09:33:47;;;;;;;5.90;3.30;;;21.10;55.60;;;;;;5088518;28;20020;-68
2021/05/28 09:36:14;;;;;;;6.15;3.45;;;21.10;55.40;;;;;;5088728;28;20540;-67
2021/05/28 09:38:52;;;;;;;5.78;2.85;;;21.10;55.30;;;;;;5088862;28;20378;-67
2021/05/28 09:41:33;;;;;;;5.63;3.05;;;21.20;55.40;;;;;;5088489;28;20035;-66
2021/05/28 09:44:08;;;;;;;6.20;3.00;;;21.20;55.20;;;;;;5070140;28;20122;-69
2021/05/28 09:46:33;;;;;;;5.65;2.92;;;21.30;55.30;;;;;;5070109;28;20059;-67
2021/05/28 09:49:07;;;;;;;5.43;2.92;;;21.30;55.00;;;;;;5069902;28;20757;-67
2021/05/28 09:51:33;;;;;;;6.32;3.60;;;21.40;54.80;;;;;;5088305;28;20028;-67
2021/05/28 09:54:12;;;;;;;5.28;2.80;;;21.40;54.60;;;;;;5087570;28;20024;-70
2021/05/28 09:56:38;;;;;;;6.25;3.30;;;21.50;54.40;;;;;;5069918;28;20020;-68
2021/05/28 09:59:06;;;;;;;5.93;2.90;;;21.50;54.40;;;;;;5088282;28;20036;-67
2021/05/28 10:01:33;;;;;;;5.18;2.95;;;21.30;54.50;;;;;;5088100;28;20290;-67
2021/05/28 10:04:06;;;;;;;5.43;3.33;;;21.40;54.50;;;;;;5069509;28;20028;-67
2021/05/28 10:06:37;;;;;;;5.18;2.97;;;21.50;54.20;;;;;;5088059;28;20036;-67
2021/05/28 10:09:10;;;;;;;6.15;2.90;;;21.50;54.10;;;;;;5069931;28;20032;-68
2021/05/28 10:11:38;;;;;;;6.10;3.08;;;21.40;54.10;;;;;;5087413;28;20036;-67
2021/05/28 10:14:05;;;;;;;6.18;3.22;;;21.50;54.10;;;;;;5087810;28;20017;-68
2021/05/28 10:16:31;;;;;;;5.13;3.00;;;21.50;53.50;;;;;;5087909;28;20445;-68
2021/05/28 10:18:57;;;;;;;5.28;2.90;;;21.60;53.40;;;;;;5087755;28;20107;-71
2021/05/28 10:21:24;;;;;;;4.93;2.60;;;21.60;53.30;;;;;;5069291;28;20032;-68
2021/05/28 10:23:50;;;;;;;5.18;2.85;;;21.30;53.60;;;;;;5087433;28;20081;-67
2021/05/28 10:26:23;;;;;;;4.57;2.70;;;21.30;54.20;;;;;;5087714;28;20031;-69
2021/05/28 10:28:48;;;;;;;5.15;2.95;;;21.40;53.80;;;;;;5087584;28;20054;-68
2021/05/28 10:31:14;;;;;;;3.80;2.40;;;21.30;53.80;;;;;;5069071;28;20045;-68
2021/05/28 10:34:01;;;;;;;6.10;3.13;;;21.10;54.20;;;;;;5087470;28;20031;-67
2021/05/28 10:36:45;;;;;;;4.20;2.50;;;21.00;54.40;;;;;;5068955;28;20117;-69
2021/05/28 10:39:13;;;;;;;5.05;2.92;;;21.00;54.70;;;;;;5069198;28;20028;-68
2021/05/28 10:41:46;;;;;;;4.65;2.80;;;20.90;54.90;;;;;;5087299;28;20043;-67
2021/05/28 10:44:19;;;;;;;4.57;2.67;;;21.00;55.30;;;;;;5068979;28;20024;-69
2021/05/28 10:46:56;;;;;;;4.68;2.53;;;21.00;54.70;;;;;;5068943;28;20069;-70
2021/05/28 10:49:43;;;;;;;4.85;2.88;;;21.10;54.60;;;;;;5068720;28;20481;-67
2021/05/28 10:52:30;;;;;;;4.63;2.60;;;21.00;54.50;;;;;;5087033;28;20024;-69
2021/05/28 10:54:58;;;;;;;4.97;2.75;;;20.90;54.90;;;;;;5086052;28;20032;-69
2021/05/28 10:57:26;;;;;;;5.25;3.00;;;20.70;55.00;;;;;;5086865;28;20043;-69
2021/05/28 10:59:54;;;;;;;4.20;2.50;;;20.70;55.10;;;;;;5086580;28;20032;-69
2021/05/28 11:02:48;;;;;;;4.70;2.58;;;20.90;54.80;;;;;;5068467;28;20032;-68
2021/05/28 11:05:16;;;;;;;6.10;3.25;;;21.00;54.60;;;;;;5075484;28;20034;-67
2021/05/28 11:07:44;;;;;;;4.70;2.75;;;21.10;54.10;;;;;;5078978;28;20060;-70
2021/05/28 11:10:25;;;;;;;4.75;2.72;;;21.30;53.80;;;;;;5063335;28;20788;-70
2021/05/28 11:12:54;;;;;;;6.32;2.45;;;21.40;53.70;;;;;;5071316;28;20030;-69
2021/05/28 11:15:27;;;;;;;7.22;2.60;;;21.10;53.40;;;;;;5074285;28;20108;-70
2021/05/28 11:17:59;;;;;;;4.40;2.50;;;20.90;53.90;;;;;;5081204;28;20039;-68
2021/05/28 11:20:35;;;;;;;5.50;2.58;;;20.80;54.30;;;;;;5073910;28;20473;-68
2021/05/28 11:23:08;;;;;;;5.28;2.47;;;20.80;54.50;;;;;;5075262;28;20163;-68
2021/05/28 11:25:47;;;;;;;5.13;2.58;;;21.00;54.20;;;;;;5065810;28;20757;-67
2021/05/28 11:28:14;;;;;;;5.97;2.63;;;21.10;53.90;;;;;;5065673;28;20028;-68
2021/05/28 11:30:45;;;;;;;4.80;2.40;;;21.20;53.70;;;;;;5065565;28;20036;-71
2021/05/28 11:33:31;;;;;;;;;;;21.20;53.60;;;;;;5077291;28;20975;-68
2021/05/28 11:35:56;;;;;;;4.32;2.40;;;21.20;53.40;;;;;;5056673;28;19904;-68
2021/05/28 11:38:32;;;;;;;4.32;2.47;;;21.20;53.60;;;;;;5067439;28;20024;-66
2021/05/28 11:40:58;;;;;;;4.85;2.28;;;21.10;53.50;;;;;;5073911;28;20502;-67
2021/05/28 11:43:24;;;;;;;3.80;2.03;;;21.00;53.90;;;;;;5073359;28;20032;-68
2021/05/28 11:45:54;;;;;;;4.20;2.20;;;21.00;53.90;;;;;;5072260;28;20060;-66
2021/05/28 11:48:24;;;;;;;5.13;2.40;;;21.00;54.20;;;;;;5063967;28;20486;-68
2021/05/28 11:51:01;;;;;;;5.00;2.60;;;21.00;54.30;;;;;;5054757;28;20556;-69
2021/05/28 11:53:32;;;;;;;8.00;2.35;;;20.90;54.30;;;;;;5047904;28;20844;-67
2021/05/28 11:56:00;;;;;;;5.22;2.08;;;20.90;54.30;;;;;;5065457;28;20055;-68
2021/05/28 11:58:32;;;;;;;3.35;2.20;;;20.80;54.60;;;;;;5047851;28;20503;-67
2021/05/28 12:00:59;;;;;;;4.60;2.17;;;20.80;54.90;;;;;;5065631;28;20036;-70
2021/05/28 12:03:25;;;;;;;3.38;2.10;;;20.70;54.90;;;;;;5047362;28;20024;-66
2021/05/28 12:05:52;;;;;;;4.03;2.22;;;20.70;55.00;;;;;;5065481;28;20407;-68
2021/05/28 12:08:29;;;;;;;4.00;2.10;;;20.70;55.00;;;;;;5047697;28;20124;-67
2021/05/28 12:10:56;;;;;;;4.30;2.20;;;20.60;55.00;;;;;;5065857;28;20410;-68
2021/05/28 12:13:27;;;;;;;3.90;2.30;;;20.60;55.70;;;;;;5065350;28;20217;-72
2021/05/28 12:15:55;;;;;;;3.78;1.95;;;20.60;55.40;;;;;;5047146;28;20874;-69
2021/05/28 12:18:43;;;;;;;4.72;2.15;;;20.50;55.50;;;;;;5047281;28;20028;-68
2021/05/28 12:21:11;;;;;;;4.28;2.00;;;20.40;55.90;;;;;;5065527;28;20508;-68
2021/05/28 12:23:43;;;;;;;5.75;2.20;;;20.40;55.90;;;;;;5065150;28;20021;-69
2021/05/28 12:26:11;;;;;;;5.22;1.90;;;20.30;56.00;;;;;;5061649;28;20042;-68
2021/05/28 12:28:48;;;;;;;11.73;2.90;;;20.30;56.10;;;;;;5084125;28;20210;-68
2021/05/28 12:31:15;;;;;;;5.97;2.38;;;20.40;56.20;;;;;;5066456;28;20477;-69
2021/05/28 12:33:52;;;;;;;7.43;2.20;;;20.30;56.10;;;;;;5054440;28;20026;-68
2021/05/28 12:36:25;;;;;;;5.97;2.45;;;20.30;56.20;;;;;;5076029;28;20684;-68
2021/05/28 12:38:52;;;;;;;12.32;2.28;;;20.30;56.20;;;;;;5049264;28;20066;-69
2021/05/28 12:41:21;;;;;;;5.25;2.17;;;20.30;56.20;;;;;;5049549;28;20028;-68
2021/05/28 12:43:48;;;;;;;6.70;2.17;;;20.30;56.20;;;;;;5065089;28;20086;-69
2021/05/28 12:46:27;;;;;;;5.82;2.17;;;20.30;56.40;;;;;;5051226;28;20032;-69